createdAt,value
2022-12-31T00:01:28.065Z,100334.28
2022-12-31T00:03:55.911Z,100336.03
2022-12-31T00:06:24.315Z,100324.09
2022-12-31T00:08:52.008Z,100330.34
2022-12-31T00:11:19.022Z,100326.50
2022-12-31T00:13:46.676Z,100315.72
2022-12-31T00:16:19.829Z,100319.28
2022-12-31T00:18:48.327Z,100331.78
2022-12-31T00:21:15.912Z,100329.81
2022-12-31T00:23:42.770Z,100343.47
2022-12-31T00:26:12.188Z,100343.59
2022-12-31T00:28:39.548Z,100347.16
2022-12-31T00:31:10.723Z,100349.88
2022-12-31T00:33:37.553Z,100354.13
2022-12-31T00:36:09.533Z,100352.44
2022-12-31T00:38:37.364Z,100351.44
2022-12-31T00:41:04.526Z,100345.06
2022-12-31T00:43:31.301Z,100353.16
2022-12-31T00:45:57.847Z,100355.88
2022-12-31T00:48:24.368Z,100359.41
2022-12-31T00:50:50.978Z,100355.97
2022-12-31T00:53:17.397Z,100355.13
2022-12-31T00:55:44.511Z,100357.84
2022-12-31T00:58:10.917Z,100351.69
2022-12-31T01:00:38.453Z,100359.81
2022-12-31T01:03:05.959Z,100351.69
2022-12-31T01:05:34.217Z,100353.66
2022-12-31T01:08:01.099Z,100349.41
2022-12-31T01:10:46.689Z,100346.09
2022-12-31T01:13:13.105Z,100349.06
2022-12-31T01:15:39.694Z,100343.22
2022-12-31T01:18:07.984Z,100347.00
2022-12-31T01:20:38.888Z,100357.94
2022-12-31T01:23:06.520Z,100354.38
2022-12-31T01:25:37.445Z,100349.97
2022-12-31T01:28:05.169Z,100354.78
2022-12-31T01:30:32.553Z,100355.78
2022-12-31T01:32:59.114Z,100351.47
2022-12-31T01:35:25.855Z,100353.44
2022-12-31T01:37:52.294Z,100360.72
2022-12-31T01:40:18.746Z,100356.28
2022-12-31T01:42:45.175Z,100350.16
2022-12-31T01:45:13.717Z,100361.94
2022-12-31T01:47:46.405Z,100369.31
2022-12-31T01:50:18.078Z,100362.94
2022-12-31T01:52:48.222Z,100363.91
2022-12-31T01:55:33.246Z,100368.72
2022-12-31T01:58:08.057Z,100366.16
2022-12-31T02:00:35.066Z,100377.94
2022-12-31T02:03:02.668Z,100378.09
2022-12-31T02:05:41.311Z,100379.03
2022-12-31T02:08:08.346Z,100381.75
2022-12-31T02:10:35.569Z,100380.78
2022-12-31T02:13:02.524Z,100366.53
2022-12-31T02:15:48.180Z,100348.50
2022-12-31T02:18:40.764Z,100345.81
2022-12-31T02:21:25.613Z,100348.50
2022-12-31T02:24:18.201Z,100345.94
2022-12-31T02:26:53.523Z,100358.56
2022-12-31T02:29:25.627Z,100347.03
2022-12-31T02:32:12.733Z,100334.41
2022-12-31T02:34:51.688Z,100314.50
2022-12-31T02:37:23.327Z,100313.66
2022-12-31T02:39:50.042Z,100324.34
2022-12-31T02:42:16.452Z,100322.63
2022-12-31T02:44:43.163Z,100321.75
2022-12-31T02:47:09.529Z,100315.66
2022-12-31T02:50:17.390Z,100341.03
2022-12-31T02:52:55.000Z,100346.72
2022-12-31T02:55:31.281Z,100355.06
2022-12-31T02:58:45.431Z,100366.81
2022-12-31T03:01:34.834Z,100369.66
2022-12-31T03:04:25.173Z,100378.75
2022-12-31T03:06:53.303Z,100380.59
2022-12-31T03:09:19.831Z,100390.50
2022-12-31T03:12:05.381Z,100392.25
2022-12-31T03:14:31.838Z,100385.25
2022-12-31T03:16:58.363Z,100384.41
2022-12-31T03:19:43.171Z,100382.69
2022-12-31T03:22:27.544Z,100390.91
2022-12-31T03:25:28.164Z,100380.25
2022-12-31T03:27:56.093Z,100381.25
2022-12-31T03:30:23.760Z,100390.31
2022-12-31T03:32:51.273Z,100391.28
2022-12-31T03:35:20.462Z,100379.75
2022-12-31T03:37:48.038Z,100386.16
2022-12-31T03:40:15.601Z,100394.38
2022-12-31T03:42:42.795Z,100382.84
2022-12-31T03:45:10.798Z,100380.28
2022-12-31T03:47:37.357Z,100383.94
2022-12-31T03:50:05.964Z,100375.13
2022-12-31T03:52:32.420Z,100373.41
2022-12-31T03:54:59.576Z,100370.09
2022-12-31T03:57:26.129Z,100379.06
2022-12-31T03:59:52.772Z,100374.75
2022-12-31T04:02:22.034Z,100384.72
2022-12-31T04:04:52.947Z,100369.63
2022-12-31T04:07:19.406Z,100369.75
2022-12-31T04:09:45.899Z,100365.34
2022-12-31T04:12:12.665Z,100361.91
2022-12-31T04:14:39.087Z,100360.19
2022-12-31T04:17:05.560Z,100356.66
2022-12-31T04:19:32.535Z,100351.38
2022-12-31T04:21:58.984Z,100353.34
2022-12-31T04:24:25.687Z,100346.94
2022-12-31T04:26:52.156Z,100335.47
2022-12-31T04:29:18.670Z,100331.75
2022-12-31T04:31:45.664Z,100322.19
2022-12-31T04:34:12.202Z,100340.13
2022-12-31T04:36:38.637Z,100343.66
2022-12-31T04:39:05.161Z,100348.22
2022-12-31T04:41:32.041Z,100358.25
2022-12-31T04:43:59.497Z,100347.59
2022-12-31T04:46:28.993Z,100348.56
2022-12-31T04:48:56.068Z,100352.25
2022-12-31T04:51:23.863Z,100363.91
2022-12-31T04:53:50.441Z,100369.31
2022-12-31T04:56:17.287Z,100362.03
2022-12-31T04:58:44.179Z,100353.13
2022-12-31T05:01:12.064Z,100356.66
2022-12-31T05:03:39.078Z,100360.22
2022-12-31T05:06:08.259Z,100340.47
2022-12-31T05:08:34.799Z,100345.78
2022-12-31T05:11:01.378Z,100366.34
2022-12-31T05:13:32.931Z,100368.06
2022-12-31T05:16:00.778Z,100351.03
2022-12-31T05:18:27.694Z,100359.00
2022-12-31T05:20:54.102Z,100360.69
2022-12-31T05:23:20.540Z,100366.09
2022-12-31T05:25:48.327Z,100353.34
2022-12-31T05:28:15.968Z,100355.03
2022-12-31T05:30:43.553Z,100360.19
2022-12-31T05:33:10.574Z,100372.56
2022-12-31T05:35:37.150Z,100368.66
2022-12-31T05:38:03.821Z,100367.78
2022-12-31T05:40:30.686Z,100378.47
2022-12-31T05:42:57.396Z,100379.94
2022-12-31T05:45:30.179Z,100374.88
2022-12-31T05:47:57.405Z,100374.63
2022-12-31T05:50:24.051Z,100365.03
2022-12-31T05:52:55.707Z,100354.84
2022-12-31T05:55:22.277Z,100351.91
2022-12-31T05:57:48.851Z,100365.25
2022-12-31T06:00:15.819Z,100365.88
2022-12-31T06:02:42.875Z,100370.00
2022-12-31T06:05:09.627Z,100358.25
2022-12-31T06:07:36.186Z,100359.06
2022-12-31T06:10:04.791Z,100361.41
2022-12-31T06:12:31.363Z,100369.38
2022-12-31T06:14:57.888Z,100363.72
2022-12-31T06:17:24.456Z,100367.00
2022-12-31T06:19:50.942Z,100369.72
2022-12-31T06:22:17.495Z,100370.31
2022-12-31T06:24:43.995Z,100371.16
2022-12-31T06:27:11.055Z,100375.59
2022-12-31T06:29:37.744Z,100369.91
2022-12-31T06:32:04.515Z,100366.34
2022-12-31T06:34:30.985Z,100379.63
2022-12-31T06:36:58.315Z,100391.25
2022-12-31T06:39:25.039Z,100385.59
2022-12-31T06:41:51.473Z,100397.13
2022-12-31T06:44:18.029Z,100395.91
2022-12-31T06:46:44.567Z,100399.94
2022-12-31T06:49:11.131Z,100389.59
2022-12-31T06:51:37.659Z,100399.00
2022-12-31T06:54:04.113Z,100395.06
2022-12-31T06:56:34.564Z,100408.03
2022-12-31T06:59:03.271Z,100407.66
2022-12-31T07:01:49.239Z,100393.63
2022-12-31T07:04:45.113Z,100385.84
2022-12-31T07:07:20.521Z,100386.28
2022-12-31T07:10:00.315Z,100376.94
2022-12-31T07:12:42.073Z,100386.38
2022-12-31T07:15:36.394Z,100379.44
2022-12-31T07:18:29.081Z,100379.16
2022-12-31T07:20:58.270Z,100383.19
2022-12-31T07:23:25.298Z,100375.66
2022-12-31T07:26:01.848Z,100372.69
2022-12-31T07:28:36.284Z,100378.28
2022-12-31T07:31:39.215Z,100380.84
2022-12-31T07:34:24.566Z,100366.94
2022-12-31T07:37:07.608Z,100379.91
2022-12-31T07:39:58.409Z,100391.44
2022-12-31T07:42:36.969Z,100398.16
2022-12-31T07:45:08.839Z,100388.91
2022-12-31T07:47:35.602Z,100404.72
2022-12-31T07:50:02.357Z,100388.09
2022-12-31T07:52:29.125Z,100397.06
2022-12-31T07:54:55.579Z,100403.06
2022-12-31T07:57:27.692Z,100413.59
2022-12-31T08:00:14.654Z,100408.03
2022-12-31T08:03:09.317Z,100409.63
2022-12-31T08:05:57.688Z,100411.91
2022-12-31T08:08:53.859Z,100415.91
2022-12-31T08:11:30.530Z,100420.59
2022-12-31T08:14:01.793Z,100415.31
2022-12-31T08:16:28.827Z,100408.63
2022-12-31T08:18:55.751Z,100421.72
2022-12-31T08:21:37.123Z,100424.19
2022-12-31T08:24:25.849Z,100417.91
2022-12-31T08:27:24.998Z,100413.75
2022-12-31T08:30:05.336Z,100414.59
2022-12-31T08:32:39.888Z,100432.53
2022-12-31T08:35:35.982Z,100432.53
2022-12-31T08:38:43.515Z,100450.78
2022-12-31T08:41:20.855Z,100477.84
2022-12-31T08:43:59.295Z,100473.41
2022-12-31T08:46:31.304Z,100484.25
2022-12-31T08:48:58.029Z,100486.94
2022-12-31T08:51:26.665Z,100495.94
2022-12-31T08:53:53.513Z,100500.63
2022-12-31T08:56:30.658Z,100515.28
2022-12-31T08:59:11.972Z,100516.13
2022-12-31T09:01:58.988Z,100532.50
2022-12-31T09:04:48.875Z,100529.81
2022-12-31T09:07:17.906Z,100535.34
2022-12-31T09:10:03.677Z,100528.81
2022-12-31T09:12:39.724Z,100545.06
2022-12-31T09:15:20.052Z,100543.34
2022-12-31T09:17:49.643Z,100542.34
2022-12-31T09:20:36.358Z,100561.75
2022-12-31T09:23:08.860Z,100535.16
2022-12-31T09:26:01.162Z,100556.41
2022-12-31T09:28:36.289Z,100548.59
2022-12-31T09:31:17.153Z,100538.06
2022-12-31T09:34:14.979Z,100549.06
2022-12-31T09:37:15.335Z,100551.25
2022-12-31T09:39:47.604Z,100548.41
2022-12-31T09:42:45.012Z,100547.28
2022-12-31T09:45:24.651Z,100544.16
2022-12-31T09:48:09.149Z,100551.00
2022-12-31T09:51:02.488Z,100555.31
2022-12-31T09:53:50.528Z,100570.41
2022-12-31T09:56:29.079Z,100563.75
2022-12-31T09:59:23.428Z,100558.78
2022-12-31T10:01:59.003Z,100560.63
2022-12-31T10:04:38.708Z,100567.03
2022-12-31T10:07:28.109Z,100557.03
2022-12-31T10:09:59.475Z,100560.34
2022-12-31T10:12:42.690Z,100554.66
2022-12-31T10:15:52.988Z,100552.69
2022-12-31T10:18:36.501Z,100553.88
2022-12-31T10:21:36.268Z,100547.75
2022-12-31T10:24:08.439Z,100556.63
2022-12-31T10:27:14.058Z,100550.78
2022-12-31T10:29:54.922Z,100551.06
2022-12-31T10:32:44.071Z,100558.63
2022-12-31T10:35:42.833Z,100562.63
2022-12-31T10:38:32.067Z,100573.19
2022-12-31T10:41:30.760Z,100571.91
2022-12-31T10:44:21.913Z,100583.75
2022-12-31T10:47:19.626Z,100558.34
2022-12-31T10:50:04.386Z,100576.47
2022-12-31T10:52:55.488Z,100573.91
2022-12-31T10:55:40.779Z,100572.31
2022-12-31T10:58:36.942Z,100569.03
2022-12-31T11:01:33.609Z,100567.19
2022-12-31T11:04:37.357Z,100568.78
2022-12-31T11:07:46.450Z,100571.75
2022-12-31T11:10:40.798Z,100579.72
2022-12-31T11:13:19.607Z,100557.06
2022-12-31T11:16:10.067Z,100579.47
2022-12-31T11:18:56.817Z,100583.88
2022-12-31T11:21:41.358Z,100563.66
2022-12-31T11:24:51.126Z,100565.63
2022-12-31T11:27:38.579Z,100551.66
2022-12-31T11:30:45.682Z,100563.34
2022-12-31T11:33:21.315Z,100570.63
2022-12-31T11:36:13.707Z,100554.06
2022-12-31T11:38:45.570Z,100574.88
2022-12-31T11:41:21.218Z,100577.59
2022-12-31T11:44:15.799Z,100579.34
2022-12-31T11:47:03.647Z,100571.91
2022-12-31T11:49:52.026Z,100577.91
2022-12-31T11:52:33.736Z,100573.19
2022-12-31T11:55:23.145Z,100570.91
2022-12-31T11:57:50.991Z,100578.38
2022-12-31T12:00:20.838Z,100573.78
2022-12-31T12:02:51.949Z,100563.50
2022-12-31T12:05:21.804Z,100571.09
2022-12-31T12:07:50.113Z,100567.50
2022-12-31T12:10:35.290Z,100561.25
2022-12-31T12:13:16.942Z,100563.09
2022-12-31T12:15:47.983Z,100561.50
2022-12-31T12:18:24.666Z,100560.66
2022-12-31T12:20:51.237Z,100547.34
2022-12-31T12:23:25.571Z,100559.38
2022-12-31T12:25:52.877Z,100558.66
2022-12-31T12:28:26.530Z,100561.66
2022-12-31T12:30:56.606Z,100556.22
2022-12-31T12:33:23.555Z,100548.94
2022-12-31T12:35:50.992Z,100551.38
2022-12-31T12:38:21.239Z,100552.34
2022-12-31T12:41:00.392Z,100546.66
2022-12-31T12:43:33.165Z,100552.09
2022-12-31T12:46:02.329Z,100550.06
2022-12-31T12:48:38.340Z,100567.94
2022-12-31T12:51:33.919Z,100562.38
2022-12-31T12:54:12.819Z,100559.94
2022-12-31T12:56:57.129Z,100564.06
2022-12-31T12:59:48.586Z,100566.09
2022-12-31T13:02:21.295Z,100581.50
2022-12-31T13:05:28.258Z,100572.34
2022-12-31T13:08:33.781Z,100577.78
2022-12-31T13:11:06.641Z,100569.50
2022-12-31T13:14:10.582Z,100574.22
2022-12-31T13:16:47.024Z,100582.22
2022-12-31T13:19:22.289Z,100587.06
2022-12-31T13:21:48.703Z,100583.78
2022-12-31T13:24:36.931Z,100593.19
2022-12-31T13:27:06.416Z,100585.19
2022-12-31T13:29:35.778Z,100597.22
2022-12-31T13:32:07.116Z,100588.63
2022-12-31T13:34:41.611Z,100584.47
2022-12-31T13:37:28.328Z,100591.88
2022-12-31T13:40:05.742Z,100594.75
2022-12-31T13:42:53.029Z,100613.72
2022-12-31T13:45:32.072Z,100595.47
2022-12-31T13:48:06.259Z,100592.91
2022-12-31T13:50:39.051Z,100602.06
2022-12-31T13:53:26.690Z,100599.44
2022-12-31T13:55:58.325Z,100596.03
2022-12-31T13:58:40.857Z,100598.63
2022-12-31T14:01:26.246Z,100597.88
2022-12-31T14:04:03.879Z,100597.03
2022-12-31T14:06:45.733Z,100595.91
2022-12-31T14:09:33.798Z,100596.47
2022-12-31T14:12:17.890Z,100588.34
2022-12-31T14:14:49.680Z,100599.44
2022-12-31T14:17:23.979Z,100585.19
2022-12-31T14:20:16.391Z,100594.03
2022-12-31T14:23:02.707Z,100587.75
2022-12-31T14:25:38.049Z,100593.19
2022-12-31T14:28:06.650Z,100586.91
2022-12-31T14:30:40.677Z,100609.84
2022-12-31T14:33:34.776Z,100626.28
2022-12-31T14:36:25.669Z,100641.13
2022-12-31T14:39:14.042Z,100633.94
2022-12-31T14:41:40.579Z,100636.34
2022-12-31T14:44:25.734Z,100629.63
2022-12-31T14:47:19.354Z,100633.91
2022-12-31T14:49:57.874Z,100622.78
2022-12-31T14:52:25.002Z,100632.88
2022-12-31T14:55:09.846Z,100639.19
2022-12-31T14:58:17.206Z,100633.91
2022-12-31T15:00:33.291Z,100652.97
2022-12-31T15:03:23.013Z,100655.44
2022-12-31T15:06:25.641Z,100639.03
2022-12-31T15:09:22.367Z,100655.81
2022-12-31T15:12:16.108Z,100660.66
2022-12-31T15:14:58.815Z,100648.97
2022-12-31T15:18:12.584Z,100650.09
2022-12-31T15:21:23.533Z,100631.13
2022-12-31T15:23:50.174Z,100628.13
2022-12-31T15:26:21.453Z,100628.13
2022-12-31T15:29:06.557Z,100635.00
2022-12-31T15:31:35.616Z,100617.75
2022-12-31T15:34:07.765Z,100622.19
2022-12-31T15:36:38.070Z,100609.94
2022-12-31T15:39:12.300Z,100616.78
2022-12-31T15:42:10.333Z,100612.09
2022-12-31T15:44:45.073Z,100598.53
2022-12-31T15:47:28.679Z,100606.09
2022-12-31T15:49:55.694Z,100609.53
2022-12-31T15:52:33.897Z,100617.53
2022-12-31T15:55:03.881Z,100614.69
2022-12-31T15:57:33.695Z,100607.84
2022-12-31T16:00:02.064Z,100618.41
2022-12-31T16:02:31.692Z,100612.03
2022-12-31T16:04:58.253Z,100627.41
2022-12-31T16:07:28.052Z,100626.00
2022-12-31T16:09:57.796Z,100613.88
2022-12-31T16:12:32.717Z,100615.91
2022-12-31T16:15:01.778Z,100628.88
2022-12-31T16:17:33.961Z,100614.00
2022-12-31T16:20:02.283Z,100622.88
2022-12-31T16:22:40.111Z,100609.44
2022-12-31T16:27:54.966Z,100610.28
2022-12-31T16:30:30.656Z,100590.63
2022-12-31T16:33:03.341Z,100596.19
2022-12-31T16:35:31.117Z,100594.88
2022-12-31T16:38:20.635Z,100608.31
2022-12-31T16:41:02.204Z,100601.31
2022-12-31T16:43:39.113Z,100606.03
2022-12-31T16:46:11.505Z,100591.31
2022-12-31T16:48:38.513Z,100600.88
2022-12-31T16:51:05.939Z,100587.47
2022-12-31T16:53:36.324Z,100598.31
2022-12-31T16:56:08.770Z,100600.59
2022-12-31T16:58:39.847Z,100605.16
2022-12-31T17:01:27.704Z,100598.03
2022-12-31T17:04:04.820Z,100592.47
2022-12-31T17:06:33.443Z,100578.91
2022-12-31T17:09:05.116Z,100583.19
2022-12-31T17:11:35.477Z,100586.75
2022-12-31T17:14:08.239Z,100596.72
2022-12-31T17:16:44.157Z,100601.72
2022-12-31T17:19:43.252Z,100593.03
2022-12-31T17:22:31.817Z,100595.19
2022-12-31T17:25:15.452Z,100585.34
2022-12-31T17:27:52.972Z,100587.19
2022-12-31T17:30:32.684Z,100582.06
2022-12-31T17:33:22.111Z,100600.47
2022-12-31T17:35:54.466Z,100582.75
2022-12-31T17:38:20.876Z,100589.75
2022-12-31T17:40:52.082Z,100580.91
2022-12-31T17:43:23.588Z,100575.03
2022-12-31T17:45:52.552Z,100578.31
2022-12-31T17:48:19.845Z,100582.91
2022-12-31T17:50:48.298Z,100584.91
2022-12-31T17:53:15.091Z,100588.75
2022-12-31T17:55:45.338Z,100586.91
2022-12-31T17:58:35.358Z,100589.63
2022-12-31T18:01:05.986Z,100600.03
2022-12-31T18:03:32.532Z,100594.75
2022-12-31T18:05:59.059Z,100587.19
2022-12-31T18:08:25.551Z,100597.50
2022-12-31T18:10:53.973Z,100604.19
2022-12-31T18:13:23.789Z,100600.75
2022-12-31T18:15:50.880Z,100585.50
2022-12-31T18:18:26.487Z,100596.47
2022-12-31T18:20:58.638Z,100600.47
2022-12-31T18:23:33.552Z,100588.91
2022-12-31T18:26:00.119Z,100585.19
2022-12-31T18:28:27.364Z,100594.50
2022-12-31T18:30:53.870Z,100586.78
2022-12-31T18:33:25.647Z,100591.91
2022-12-31T18:36:10.313Z,100597.19
2022-12-31T18:38:37.177Z,100580.63
2022-12-31T18:41:04.230Z,100603.22
2022-12-31T18:43:30.820Z,100598.34
2022-12-31T18:45:57.567Z,100606.94
2022-12-31T18:48:24.412Z,100595.34
2022-12-31T18:50:51.099Z,100594.50
2022-12-31T18:53:22.895Z,100599.22
2022-12-31T18:55:57.051Z,100608.91
2022-12-31T18:58:24.014Z,100607.34
2022-12-31T19:00:51.378Z,100602.06
2022-12-31T19:03:23.497Z,100604.78
2022-12-31T19:05:51.812Z,100604.47
2022-12-31T19:08:20.010Z,100614.06
2022-12-31T19:10:47.601Z,100629.63
2022-12-31T19:13:16.429Z,100626.34
2022-12-31T19:15:47.253Z,100623.63
2022-12-31T19:18:13.833Z,100620.63
2022-12-31T19:20:41.229Z,100621.63
2022-12-31T19:23:17.777Z,100625.91
2022-12-31T19:25:44.782Z,100637.78
2022-12-31T19:28:17.386Z,100632.91
2022-12-31T19:30:44.169Z,100634.06
2022-12-31T19:33:10.813Z,100622.66
2022-12-31T19:35:38.410Z,100618.19
2022-12-31T19:38:10.227Z,100627.47
2022-12-31T19:40:36.737Z,100620.06
2022-12-31T19:43:03.260Z,100615.63
2022-12-31T19:45:29.946Z,100608.50
2022-12-31T19:47:56.760Z,100607.03
2022-12-31T19:50:26.597Z,100626.47
2022-12-31T19:52:56.744Z,100625.50
2022-12-31T19:55:27.796Z,100625.19
2022-12-31T19:57:54.266Z,100634.50
2022-12-31T20:00:21.628Z,100641.78
2022-12-31T20:02:48.822Z,100643.06
2022-12-31T20:05:17.068Z,100622.78
2022-12-31T20:07:43.610Z,100641.34
2022-12-31T20:10:10.933Z,100641.91
2022-12-31T20:12:43.974Z,100641.19
2022-12-31T20:15:11.163Z,100647.88
2022-12-31T20:17:37.685Z,100640.19
2022-12-31T20:20:05.578Z,100643.63
2022-12-31T20:22:32.891Z,100639.19
2022-12-31T20:24:59.385Z,100657.34
2022-12-31T20:27:25.858Z,100659.22
2022-12-31T20:29:52.449Z,100661.91
2022-12-31T20:32:18.939Z,100654.47
2022-12-31T20:34:45.465Z,100636.63
2022-12-31T20:37:11.924Z,100646.75
2022-12-31T20:39:38.393Z,100636.91
2022-12-31T20:42:05.666Z,100637.06
2022-12-31T20:44:32.164Z,100655.78
2022-12-31T20:46:58.670Z,100651.34
2022-12-31T20:49:44.811Z,100650.78
2022-12-31T20:52:11.465Z,100660.38
2022-12-31T20:54:37.923Z,100671.06
2022-12-31T20:57:04.958Z,100659.78
2022-12-31T20:59:31.486Z,100672.50
2022-12-31T21:04:45.275Z,100648.50
2022-12-31T21:07:12.021Z,100666.09
2022-12-31T21:09:38.431Z,100670.41
2022-12-31T21:12:23.574Z,100669.38
2022-12-31T21:14:50.086Z,100669.22
2022-12-31T21:17:16.523Z,100680.09
2022-12-31T21:19:42.945Z,100667.25
2022-12-31T21:22:09.927Z,100677.53
2022-12-31T21:24:36.356Z,100667.66
2022-12-31T21:27:02.867Z,100674.81
2022-12-31T21:29:34.295Z,100682.81
2022-12-31T21:32:01.313Z,100678.69
2022-12-31T21:34:28.462Z,100684.41
2022-12-31T21:36:54.925Z,100699.53
2022-12-31T21:39:21.401Z,100702.25
2022-12-31T21:41:50.878Z,100713.84
2022-12-31T21:44:20.724Z,100703.41
2022-12-31T21:47:25.187Z,100714.97
2022-12-31T21:49:35.469Z,100706.50
2022-12-31T21:52:20.683Z,100711.22
2022-12-31T21:55:06.215Z,100706.38
2022-12-31T21:57:51.837Z,100707.34
2022-12-31T22:00:42.697Z,100704.22
2022-12-31T22:03:24.265Z,100710.09
2022-12-31T22:05:52.588Z,100706.38
2022-12-31T22:08:21.081Z,100716.97
2022-12-31T22:10:52.404Z,100708.13
2022-12-31T22:13:20.701Z,100712.53
2022-12-31T22:15:49.324Z,100697.97
2022-12-31T22:18:16.606Z,100701.69
2022-12-31T22:20:43.741Z,100705.69
2022-12-31T22:23:10.288Z,100707.84
2022-12-31T22:25:38.352Z,100704.41
2022-12-31T22:28:37.637Z,100705.81
2022-12-31T22:30:53.125Z,100714.81
2022-12-31T22:33:20.331Z,100718.84
2022-12-31T22:36:19.858Z,100715.69
2022-12-31T22:38:47.476Z,100725.97
2022-12-31T22:41:17.460Z,100726.41
2022-12-31T22:43:46.657Z,100714.38
2022-12-31T22:46:24.619Z,100707.53
2022-12-31T22:48:53.853Z,100718.97
2022-12-31T22:51:20.893Z,100717.84
2022-12-31T22:53:47.897Z,100709.69
2022-12-31T22:56:16.809Z,100728.00
2022-12-31T22:58:43.810Z,100726.56
2022-12-31T23:01:21.728Z,100728.13
2022-12-31T23:03:49.916Z,100734.00
2022-12-31T23:06:17.395Z,100721.69
2022-12-31T23:09:03.806Z,100720.00
2022-12-31T23:11:30.511Z,100745.84
2022-12-31T23:14:15.505Z,100725.56
2022-12-31T23:17:00.335Z,100746.44
2022-12-31T23:20:05.280Z,100750.56
2022-12-31T23:22:50.547Z,100745.84
2022-12-31T23:25:17.254Z,100750.84
2022-12-31T23:27:44.169Z,100766.41
2022-12-31T23:30:11.550Z,100761.41
2022-12-31T23:32:38.067Z,100760.72
2022-12-31T23:35:09.794Z,100761.16
2022-12-31T23:37:36.904Z,100754.44
2022-12-31T23:40:04.260Z,100767.56
2022-12-31T23:42:30.736Z,100757.00
2022-12-31T23:44:57.223Z,100758.16
2022-12-31T23:47:23.724Z,100759.56
2022-12-31T23:49:50.192Z,100763.56
2022-12-31T23:52:16.661Z,100769.00
2022-12-31T23:54:43.101Z,100774.22
2022-12-31T23:57:09.656Z,100781.84
2022-12-31T23:59:36.236Z,100781.28
